sensor_id;sensor_type;location;lat;lon;timestamp;P1;P2;P0
49778;PMS5003;36217;60.232;24.776;2022-11-20T00:00:38;2;2;
49778;PMS5003;36217;60.232;24.776;2022-11-20T00:03:06;3;2;
49778;PMS5003;36217;60.232;24.776;2022-11-20T00:05:33;5;2;
49778;PMS5003;36217;60.232;24.776;2022-11-20T00:08:00;2;2;
49778;PMS5003;36217;60.232;24.776;2022-11-20T00:10:27;5;3;
49778;PMS5003;36217;60.232;24.776;2022-11-20T00:12:55;3;3;
49778;PMS5003;36217;60.232;24.776;2022-11-20T00:15:23;2;2;
49778;PMS5003;36217;60.232;24.776;2022-11-20T00:17:50;1;1;
49778;PMS5003;36217;60.232;24.776;2022-11-20T00:20:17;2;2;
49778;PMS5003;36217;60.232;24.776;2022-11-20T00:22:45;2;2;
49778;PMS5003;36217;60.232;24.776;2022-11-20T00:25:12;2;2;
49778;PMS5003;36217;60.232;24.776;2022-11-20T00:27:39;5;2;
49778;PMS5003;36217;60.232;24.776;2022-11-20T00:30:07;2;2;
49778;PMS5003;36217;60.232;24.776;2022-11-20T00:32:35;2;2;
49778;PMS5003;36217;60.232;24.776;2022-11-20T00:35:02;2;2;
49778;PMS5003;36217;60.232;24.776;2022-11-20T00:37:29;2;2;
49778;PMS5003;36217;60.232;24.776;2022-11-20T00:39:56;3;3;
49778;PMS5003;36217;60.232;24.776;2022-11-20T00:42:24;2;2;
49778;PMS5003;36217;60.232;24.776;2022-11-20T00:44:51;1;1;
49778;PMS5003;36217;60.232;24.776;2022-11-20T00:47:18;1;1;
49778;PMS5003;36217;60.232;24.776;2022-11-20T00:49:45;1;1;
49778;PMS5003;36217;60.232;24.776;2022-11-20T00:52:13;1;1;
49778;PMS5003;36217;60.232;24.776;2022-11-20T00:54:40;1;1;
49778;PMS5003;36217;60.232;24.776;2022-11-20T00:57:07;2;2;
49778;PMS5003;36217;60.232;24.776;2022-11-20T00:59:34;5;2;
49778;PMS5003;36217;60.232;24.776;2022-11-20T01:02:02;3;3;
49778;PMS5003;36217;60.232;24.776;2022-11-20T01:04:29;2;2;
49778;PMS5003;36217;60.232;24.776;2022-11-20T01:06:56;6;5;
49778;PMS5003;36217;60.232;24.776;2022-11-20T01:09:24;1;1;
49778;PMS5003;36217;60.232;24.776;2022-11-20T01:11:51;3;1;
49778;PMS5003;36217;60.232;24.776;2022-11-20T01:14:19;2;2;
49778;PMS5003;36217;60.232;24.776;2022-11-20T01:16:47;3;3;
49778;PMS5003;36217;60.232;24.776;2022-11-20T01:19:17;2;2;
49778;PMS5003;36217;60.232;24.776;2022-11-20T01:21:47;3;3;
49778;PMS5003;36217;60.232;24.776;2022-11-20T01:24:17;2;2;
49778;PMS5003;36217;60.232;24.776;2022-11-20T01:26:46;2;2;
49778;PMS5003;36217;60.232;24.776;2022-11-20T01:29:15;1;1;
49778;PMS5003;36217;60.232;24.776;2022-11-20T01:31:44;5;2;
49778;PMS5003;36217;60.232;24.776;2022-11-20T01:34:12;2;2;
49778;PMS5003;36217;60.232;24.776;2022-11-20T01:36:41;2;2;
49778;PMS5003;36217;60.232;24.776;2022-11-20T01:39:10;5;3;
49778;PMS5003;36217;60.232;24.776;2022-11-20T01:41:39;2;2;
49778;PMS5003;36217;60.232;24.776;2022-11-20T01:44:09;1;1;
49778;PMS5003;36217;60.232;24.776;2022-11-20T01:46:38;2;1;
49778;PMS5003;36217;60.232;24.776;2022-11-20T01:49:08;1;1;
49778;PMS5003;36217;60.232;24.776;2022-11-20T01:51:41;2;2;
49778;PMS5003;36217;60.232;24.776;2022-11-20T01:54:12;1;1;
49778;PMS5003;36217;60.232;24.776;2022-11-20T01:56:44;1;1;
49778;PMS5003;36217;60.232;24.776;2022-11-20T01:59:15;3;1;
49778;PMS5003;36217;60.232;24.776;2022-11-20T02:01:45;2;2;
49778;PMS5003;36217;60.232;24.776;2022-11-20T02:04:13;3;1;
49778;PMS5003;36217;60.232;24.776;2022-11-20T02:06:42;1;1;
49778;PMS5003;36217;60.232;24.776;2022-11-20T02:09:13;1;1;
49778;PMS5003;36217;60.232;24.776;2022-11-20T02:11:41;2;2;
49778;PMS5003;36217;60.232;24.776;2022-11-20T02:14:08;1;1;
49778;PMS5003;36217;60.232;24.776;2022-11-20T02:16:37;2;2;
49778;PMS5003;36217;60.232;24.776;2022-11-20T02:19:07;2;2;
49778;PMS5003;36217;60.232;24.776;2022-11-20T02:21:43;2;2;
49778;PMS5003;36217;60.232;24.776;2022-11-20T02:24:15;3;1;
49778;PMS5003;36217;60.232;24.776;2022-11-20T02:26:46;3;3;
49778;PMS5003;36217;60.232;24.776;2022-11-20T02:29:17;3;2;
49778;PMS5003;36217;60.232;24.776;2022-11-20T02:31:49;1;1;
49778;PMS5003;36217;60.232;24.776;2022-11-20T02:34:17;1;1;
49778;PMS5003;36217;60.232;24.776;2022-11-20T02:36:44;2;2;
49778;PMS5003;36217;60.232;24.776;2022-11-20T02:39:13;2;2;
49778;PMS5003;36217;60.232;24.776;2022-11-20T02:41:42;3;3;
49778;PMS5003;36217;60.232;24.776;2022-11-20T02:44:09;3;2;
49778;PMS5003;36217;60.232;24.776;2022-11-20T02:46:36;2;2;
49778;PMS5003;36217;60.232;24.776;2022-11-20T02:49:04;2;2;
49778;PMS5003;36217;60.232;24.776;2022-11-20T02:51:32;1;1;
49778;PMS5003;36217;60.232;24.776;2022-11-20T02:53:59;2;2;
49778;PMS5003;36217;60.232;24.776;2022-11-20T02:56:26;1;1;
49778;PMS5003;36217;60.232;24.776;2022-11-20T02:58:53;1;1;
49778;PMS5003;36217;60.232;24.776;2022-11-20T03:01:21;5;3;
49778;PMS5003;36217;60.232;24.776;2022-11-20T03:03:48;1;1;
49778;PMS5003;36217;60.232;24.776;2022-11-20T03:06:15;1;1;
49778;PMS5003;36217;60.232;24.776;2022-11-20T03:08:43;1;1;
49778;PMS5003;36217;60.232;24.776;2022-11-20T03:11:10;1;1;
49778;PMS5003;36217;60.232;24.776;2022-11-20T03:13:37;3;2;
49778;PMS5003;36217;60.232;24.776;2022-11-20T03:16:06;3;1;
49778;PMS5003;36217;60.232;24.776;2022-11-20T03:18:35;2;2;
49778;PMS5003;36217;60.232;24.776;2022-11-20T03:21:02;2;2;
49778;PMS5003;36217;60.232;24.776;2022-11-20T03:23:30;3;3;
49778;PMS5003;36217;60.232;24.776;2022-11-20T03:26:15;5;2;
49778;PMS5003;36217;60.232;24.776;2022-11-20T03:28:46;3;2;
49778;PMS5003;36217;60.232;24.776;2022-11-20T03:31:14;2;2;
49778;PMS5003;36217;60.232;24.776;2022-11-20T03:33:43;3;2;
49778;PMS5003;36217;60.232;24.776;2022-11-20T03:36:11;2;2;
49778;PMS5003;36217;60.232;24.776;2022-11-20T03:38:40;1;1;
49778;PMS5003;36217;60.232;24.776;2022-11-20T03:41:08;1;1;
49778;PMS5003;36217;60.232;24.776;2022-11-20T03:43:36;1;1;
49778;PMS5003;36217;60.232;24.776;2022-11-20T03:46:04;2;2;
49778;PMS5003;36217;60.232;24.776;2022-11-20T03:48:32;1;1;
49778;PMS5003;36217;60.232;24.776;2022-11-20T03:51:07;3;3;
49778;PMS5003;36217;60.232;24.776;2022-11-20T03:53:35;1;1;
49778;PMS5003;36217;60.232;24.776;2022-11-20T03:56:02;6;5;
49778;PMS5003;36217;60.232;24.776;2022-11-20T03:58:30;1;1;
49778;PMS5003;36217;60.232;24.776;2022-11-20T04:01:03;5;2;
49778;PMS5003;36217;60.232;24.776;2022-11-20T04:03:31;3;1;
49778;PMS5003;36217;60.232;24.776;2022-11-20T04:06:01;3;3;
49778;PMS5003;36217;60.232;24.776;2022-11-20T04:08:28;3;3;
49778;PMS5003;36217;60.232;24.776;2022-11-20T04:10:55;2;2;
49778;PMS5003;36217;60.232;24.776;2022-11-20T04:13:23;2;2;
49778;PMS5003;36217;60.232;24.776;2022-11-20T04:15:50;1;1;
49778;PMS5003;36217;60.232;24.776;2022-11-20T04:18:17;2;1;
49778;PMS5003;36217;60.232;24.776;2022-11-20T04:20:44;1;1;
49778;PMS5003;36217;60.232;24.776;2022-11-20T04:23:12;3;3;
49778;PMS5003;36217;60.232;24.776;2022-11-20T04:25:39;1;1;
49778;PMS5003;36217;60.232;24.776;2022-11-20T04:28:06;2;2;
49778;PMS5003;36217;60.232;24.776;2022-11-20T04:30:33;5;2;
49778;PMS5003;36217;60.232;24.776;2022-11-20T04:33:01;1;1;
49778;PMS5003;36217;60.232;24.776;2022-11-20T04:35:28;3;2;
49778;PMS5003;36217;60.232;24.776;2022-11-20T04:37:55;2;2;
49778;PMS5003;36217;60.232;24.776;2022-11-20T04:40:23;2;2;
49778;PMS5003;36217;60.232;24.776;2022-11-20T04:42:50;3;3;
49778;PMS5003;36217;60.232;24.776;2022-11-20T04:45:17;2;2;
49778;PMS5003;36217;60.232;24.776;2022-11-20T04:47:44;2;2;
49778;PMS5003;36217;60.232;24.776;2022-11-20T04:50:12;1;1;
49778;PMS5003;36217;60.232;24.776;2022-11-20T04:52:39;2;2;
49778;PMS5003;36217;60.232;24.776;2022-11-20T04:55:07;3;3;
49778;PMS5003;36217;60.232;24.776;2022-11-20T04:57:34;3;3;
49778;PMS5003;36217;60.232;24.776;2022-11-20T05:00:02;1;1;
49778;PMS5003;36217;60.232;24.776;2022-11-20T05:02:30;2;2;
49778;PMS5003;36217;60.232;24.776;2022-11-20T05:04:57;2;2;
49778;PMS5003;36217;60.232;24.776;2022-11-20T05:07:24;2;2;
49778;PMS5003;36217;60.232;24.776;2022-11-20T05:09:52;1;1;
49778;PMS5003;36217;60.232;24.776;2022-11-20T05:12:19;3;3;
49778;PMS5003;36217;60.232;24.776;2022-11-20T05:14:46;3;3;
49778;PMS5003;36217;60.232;24.776;2022-11-20T05:17:13;3;3;
49778;PMS5003;36217;60.232;24.776;2022-11-20T05:19:41;2;2;
49778;PMS5003;36217;60.232;24.776;2022-11-20T05:22:08;2;2;
49778;PMS5003;36217;60.232;24.776;2022-11-20T05:24:35;2;2;
49778;PMS5003;36217;60.232;24.776;2022-11-20T05:27:02;2;2;
49778;PMS5003;36217;60.232;24.776;2022-11-20T05:29:30;6;3;
49778;PMS5003;36217;60.232;24.776;2022-11-20T05:31:57;1;1;
49778;PMS5003;36217;60.232;24.776;2022-11-20T05:34:24;3;1;
49778;PMS5003;36217;60.232;24.776;2022-11-20T05:36:51;3;3;
49778;PMS5003;36217;60.232;24.776;2022-11-20T05:39:19;6;3;
49778;PMS5003;36217;60.232;24.776;2022-11-20T05:41:46;7;3;
49778;PMS5003;36217;60.232;24.776;2022-11-20T05:44:13;3;3;
49778;PMS5003;36217;60.232;24.776;2022-11-20T05:46:41;7;6;
49778;PMS5003;36217;60.232;24.776;2022-11-20T05:49:08;5;2;
49778;PMS5003;36217;60.232;24.776;2022-11-20T05:51:35;3;3;
49778;PMS5003;36217;60.232;24.776;2022-11-20T05:54:02;2;2;
49778;PMS5003;36217;60.232;24.776;2022-11-20T05:56:30;3;3;
49778;PMS5003;36217;60.232;24.776;2022-11-20T05:58:57;3;3;
49778;PMS5003;36217;60.232;24.776;2022-11-20T06:01:25;2;2;
49778;PMS5003;36217;60.232;24.776;2022-11-20T06:03:52;5;5;
49778;PMS5003;36217;60.232;24.776;2022-11-20T06:06:20;6;3;
49778;PMS5003;36217;60.232;24.776;2022-11-20T06:08:47;5;3;
49778;PMS5003;36217;60.232;24.776;2022-11-20T06:11:14;3;2;
49778;PMS5003;36217;60.232;24.776;2022-11-20T06:13:42;5;5;
49778;PMS5003;36217;60.232;24.776;2022-11-20T06:16:10;3;3;
49778;PMS5003;36217;60.232;24.776;2022-11-20T06:18:39;2;2;
49778;PMS5003;36217;60.232;24.776;2022-11-20T06:21:06;2;2;
49778;PMS5003;36217;60.232;24.776;2022-11-20T06:23:35;3;3;
49778;PMS5003;36217;60.232;24.776;2022-11-20T06:26:03;3;3;
49778;PMS5003;36217;60.232;24.776;2022-11-20T06:28:32;3;3;
49778;PMS5003;36217;60.232;24.776;2022-11-20T06:30:59;6;5;
49778;PMS5003;36217;60.232;24.776;2022-11-20T06:33:27;6;3;
49778;PMS5003;36217;60.232;24.776;2022-11-20T06:35:55;3;3;
49778;PMS5003;36217;60.232;24.776;2022-11-20T06:38:23;5;5;
49778;PMS5003;36217;60.232;24.776;2022-11-20T06:40:50;10;5;
49778;PMS5003;36217;60.232;24.776;2022-11-20T06:43:17;5;5;
49778;PMS5003;36217;60.232;24.776;2022-11-20T06:45:44;3;3;
49778;PMS5003;36217;60.232;24.776;2022-11-20T06:48:12;3;3;
49778;PMS5003;36217;60.232;24.776;2022-11-20T06:50:39;3;2;
49778;PMS5003;36217;60.232;24.776;2022-11-20T06:53:06;5;5;
49778;PMS5003;36217;60.232;24.776;2022-11-20T06:55:34;3;3;
49778;PMS5003;36217;60.232;24.776;2022-11-20T06:58:01;3;3;
49778;PMS5003;36217;60.232;24.776;2022-11-20T07:00:28;7;5;
49778;PMS5003;36217;60.232;24.776;2022-11-20T07:02:55;3;3;
49778;PMS5003;36217;60.232;24.776;2022-11-20T07:05:23;3;3;
49778;PMS5003;36217;60.232;24.776;2022-11-20T07:07:50;3;3;
49778;PMS5003;36217;60.232;24.776;2022-11-20T07:10:17;5;3;
49778;PMS5003;36217;60.232;24.776;2022-11-20T07:12:48;6;5;
49778;PMS5003;36217;60.232;24.776;2022-11-20T07:15:16;5;5;
49778;PMS5003;36217;60.232;24.776;2022-11-20T07:17:43;3;3;
49778;PMS5003;36217;60.232;24.776;2022-11-20T07:20:11;5;5;
49778;PMS5003;36217;60.232;24.776;2022-11-20T07:22:38;5;3;
49778;PMS5003;36217;60.232;24.776;2022-11-20T07:25:05;5;3;
49778;PMS5003;36217;60.232;24.776;2022-11-20T07:27:33;3;3;
49778;PMS5003;36217;60.232;24.776;2022-11-20T07:30:00;5;5;
49778;PMS5003;36217;60.232;24.776;2022-11-20T07:32:28;6;3;
49778;PMS5003;36217;60.232;24.776;2022-11-20T07:34:55;3;3;
49778;PMS5003;36217;60.232;24.776;2022-11-20T07:37:22;6;6;
49778;PMS5003;36217;60.232;24.776;2022-11-20T07:39:49;6;5;
49778;PMS5003;36217;60.232;24.776;2022-11-20T07:42:17;2;2;
49778;PMS5003;36217;60.232;24.776;2022-11-20T07:44:44;7;5;
49778;PMS5003;36217;60.232;24.776;2022-11-20T07:47:11;7;6;
49778;PMS5003;36217;60.232;24.776;2022-11-20T07:49:38;12;6;
49778;PMS5003;36217;60.232;24.776;2022-11-20T07:52:06;3;3;
49778;PMS5003;36217;60.232;24.776;2022-11-20T07:54:33;18;12;
49778;PMS5003;36217;60.232;24.776;2022-11-20T07:57:00;3;3;
49778;PMS5003;36217;60.232;24.776;2022-11-20T07:59:27;5;3;
49778;PMS5003;36217;60.232;24.776;2022-11-20T08:01:55;10;6;
49778;PMS5003;36217;60.232;24.776;2022-11-20T08:04:22;3;2;
49778;PMS5003;36217;60.232;24.776;2022-11-20T08:06:51;3;3;
49778;PMS5003;36217;60.232;24.776;2022-11-20T08:09:18;3;3;
49778;PMS5003;36217;60.232;24.776;2022-11-20T08:11:45;5;3;
49778;PMS5003;36217;60.232;24.776;2022-11-20T08:14:13;5;3;
49778;PMS5003;36217;60.232;24.776;2022-11-20T08:16:41;3;3;
49778;PMS5003;36217;60.232;24.776;2022-11-20T08:19:09;6;3;
49778;PMS5003;36217;60.232;24.776;2022-11-20T08:21:37;1;1;
49778;PMS5003;36217;60.232;24.776;2022-11-20T08:24:05;2;2;
49778;PMS5003;36217;60.232;24.776;2022-11-20T08:26:33;1;1;
49778;PMS5003;36217;60.232;24.776;2022-11-20T08:29:00;2;1;
49778;PMS5003;36217;60.232;24.776;2022-11-20T08:31:27;5;3;
49778;PMS5003;36217;60.232;24.776;2022-11-20T08:33:54;2;2;
49778;PMS5003;36217;60.232;24.776;2022-11-20T08:36:22;3;3;
49778;PMS5003;36217;60.232;24.776;2022-11-20T08:38:50;2;2;
49778;PMS5003;36217;60.232;24.776;2022-11-20T08:41:19;2;2;
49778;PMS5003;36217;60.232;24.776;2022-11-20T08:43:46;2;2;
49778;PMS5003;36217;60.232;24.776;2022-11-20T08:46:13;5;3;
49778;PMS5003;36217;60.232;24.776;2022-11-20T08:48:41;2;2;
49778;PMS5003;36217;60.232;24.776;2022-11-20T08:51:08;5;5;
49778;PMS5003;36217;60.232;24.776;2022-11-20T08:53:35;3;3;
49778;PMS5003;36217;60.232;24.776;2022-11-20T08:56:02;3;3;
49778;PMS5003;36217;60.232;24.776;2022-11-20T08:58:29;8;6;
49778;PMS5003;36217;60.232;24.776;2022-11-20T09:00:57;10;6;
49778;PMS5003;36217;60.232;24.776;2022-11-20T09:03:24;5;5;
49778;PMS5003;36217;60.232;24.776;2022-11-20T09:05:51;5;5;
49778;PMS5003;36217;60.232;24.776;2022-11-20T09:08:22;6;6;
49778;PMS5003;36217;60.232;24.776;2022-11-20T09:10:50;2;2;
49778;PMS5003;36217;60.232;24.776;2022-11-20T09:13:18;10;5;
49778;PMS5003;36217;60.232;24.776;2022-11-20T09:15:45;7;5;
49778;PMS5003;36217;60.232;24.776;2022-11-20T09:18:13;5;5;
49778;PMS5003;36217;60.232;24.776;2022-11-20T09:20:40;3;3;
49778;PMS5003;36217;60.232;24.776;2022-11-20T09:23:07;6;3;
49778;PMS5003;36217;60.232;24.776;2022-11-20T09:25:34;5;3;
49778;PMS5003;36217;60.232;24.776;2022-11-20T09:28:01;6;3;
49778;PMS5003;36217;60.232;24.776;2022-11-20T09:30:29;5;3;
49778;PMS5003;36217;60.232;24.776;2022-11-20T09:32:56;6;3;
49778;PMS5003;36217;60.232;24.776;2022-11-20T09:35:23;3;3;
49778;PMS5003;36217;60.232;24.776;2022-11-20T09:37:50;3;3;
49778;PMS5003;36217;60.232;24.776;2022-11-20T09:40:19;5;5;
49778;PMS5003;36217;60.232;24.776;2022-11-20T09:42:49;5;5;
49778;PMS5003;36217;60.232;24.776;2022-11-20T09:45:23;8;7;
49778;PMS5003;36217;60.232;24.776;2022-11-20T09:48:04;6;6;
49778;PMS5003;36217;60.232;24.776;2022-11-20T09:50:45;7;3;
49778;PMS5003;36217;60.232;24.776;2022-11-20T09:53:22;6;6;
49778;PMS5003;36217;60.232;24.776;2022-11-20T09:55:57;6;6;
49778;PMS5003;36217;60.232;24.776;2022-11-20T09:58:28;11;11;
49778;PMS5003;36217;60.232;24.776;2022-11-20T10:01:00;5;5;
49778;PMS5003;36217;60.232;24.776;2022-11-20T10:03:37;11;10;
49778;PMS5003;36217;60.232;24.776;2022-11-20T10:06:08;6;5;
49778;PMS5003;36217;60.232;24.776;2022-11-20T10:08:40;6;6;
49778;PMS5003;36217;60.232;24.776;2022-11-20T10:11:13;6;5;
49778;PMS5003;36217;60.232;24.776;2022-11-20T10:13:46;7;6;
49778;PMS5003;36217;60.232;24.776;2022-11-20T10:16:25;6;6;
49778;PMS5003;36217;60.232;24.776;2022-11-20T10:19:08;7;7;
49778;PMS5003;36217;60.232;24.776;2022-11-20T10:21:52;10;8;
49778;PMS5003;36217;60.232;24.776;2022-11-20T10:24:34;6;5;
49778;PMS5003;36217;60.232;24.776;2022-11-20T10:27:15;7;7;
49778;PMS5003;36217;60.232;24.776;2022-11-20T10:29:59;7;7;
49778;PMS5003;36217;60.232;24.776;2022-11-20T10:32:31;8;7;
49778;PMS5003;36217;60.232;24.776;2022-11-20T10:35:04;8;8;
49778;PMS5003;36217;60.232;24.776;2022-11-20T10:37:42;7;7;
49778;PMS5003;36217;60.232;24.776;2022-11-20T10:40:18;7;6;
49778;PMS5003;36217;60.232;24.776;2022-11-20T10:42:56;8;8;
49778;PMS5003;36217;60.232;24.776;2022-11-20T10:45:32;7;7;
49778;PMS5003;36217;60.232;24.776;2022-11-20T10:48:10;8;6;
49778;PMS5003;36217;60.232;24.776;2022-11-20T10:50:44;10;7;
49778;PMS5003;36217;60.232;24.776;2022-11-20T10:53:20;10;7;
49778;PMS5003;36217;60.232;24.776;2022-11-20T10:56:07;6;5;
49778;PMS5003;36217;60.232;24.776;2022-11-20T10:58:42;8;6;
49778;PMS5003;36217;60.232;24.776;2022-11-20T11:01:15;7;7;
49778;PMS5003;36217;60.232;24.776;2022-11-20T11:03:44;8;7;
49778;PMS5003;36217;60.232;24.776;2022-11-20T11:06:12;6;6;
49778;PMS5003;36217;60.232;24.776;2022-11-20T11:08:49;6;6;
49778;PMS5003;36217;60.232;24.776;2022-11-20T11:11:21;5;5;
49778;PMS5003;36217;60.232;24.776;2022-11-20T11:13:50;6;6;
49778;PMS5003;36217;60.232;24.776;2022-11-20T11:16:19;11;6;
49778;PMS5003;36217;60.232;24.776;2022-11-20T11:18:48;5;5;
49778;PMS5003;36217;60.232;24.776;2022-11-20T11:21:19;5;5;
49778;PMS5003;36217;60.232;24.776;2022-11-20T11:23:57;6;3;
49778;PMS5003;36217;60.232;24.776;2022-11-20T11:26:26;3;3;
49778;PMS5003;36217;60.232;24.776;2022-11-20T11:28:54;5;5;
49778;PMS5003;36217;60.232;24.776;2022-11-20T11:31:22;9;7;
49778;PMS5003;36217;60.232;24.776;2022-11-20T11:33:49;6;6;
49778;PMS5003;36217;60.232;24.776;2022-11-20T11:36:17;5;5;
49778;PMS5003;36217;60.232;24.776;2022-11-20T11:38:48;5;5;
49778;PMS5003;36217;60.232;24.776;2022-11-20T11:41:19;5;5;
49778;PMS5003;36217;60.232;24.776;2022-11-20T11:43:51;3;3;
49778;PMS5003;36217;60.232;24.776;2022-11-20T11:46:24;3;3;
49778;PMS5003;36217;60.232;24.776;2022-11-20T11:48:57;6;6;
49778;PMS5003;36217;60.232;24.776;2022-11-20T11:51:26;2;2;
49778;PMS5003;36217;60.232;24.776;2022-11-20T11:53:58;6;5;
49778;PMS5003;36217;60.232;24.776;2022-11-20T11:56:30;6;5;
49778;PMS5003;36217;60.232;24.776;2022-11-20T11:59:00;7;7;
49778;PMS5003;36217;60.232;24.776;2022-11-20T12:01:37;3;3;
49778;PMS5003;36217;60.232;24.776;2022-11-20T12:04:11;3;3;
49778;PMS5003;36217;60.232;24.776;2022-11-20T12:06:44;2;2;
49778;PMS5003;36217;60.232;24.776;2022-11-20T12:09:16;3;3;
49778;PMS5003;36217;60.232;24.776;2022-11-20T12:11:47;5;5;
49778;PMS5003;36217;60.232;24.776;2022-11-20T12:14:21;3;2;
49778;PMS5003;36217;60.232;24.776;2022-11-20T12:16:55;3;3;
49778;PMS5003;36217;60.232;24.776;2022-11-20T12:19:23;3;3;
49778;PMS5003;36217;60.232;24.776;2022-11-20T12:21:54;5;5;
49778;PMS5003;36217;60.232;24.776;2022-11-20T12:24:32;6;5;
49778;PMS5003;36217;60.232;24.776;2022-11-20T12:24:39;6;3;
49778;PMS5003;36217;60.232;24.776;2022-11-20T12:28:23;5;5;
49778;PMS5003;36217;60.232;24.776;2022-11-20T12:31:16;6;3;
49778;PMS5003;36217;60.232;24.776;2022-11-20T12:33:56;5;5;
49778;PMS5003;36217;60.232;24.776;2022-11-20T12:36:40;5;5;
49778;PMS5003;36217;60.232;24.776;2022-11-20T12:39:16;5;3;
49778;PMS5003;36217;60.232;24.776;2022-11-20T12:42:04;2;2;
49778;PMS5003;36217;60.232;24.776;2022-11-20T12:44:48;5;5;
49778;PMS5003;36217;60.232;24.776;2022-11-20T12:47:30;5;5;
49778;PMS5003;36217;60.232;24.776;2022-11-20T12:50:18;3;3;
49778;PMS5003;36217;60.232;24.776;2022-11-20T12:52:55;5;5;
49778;PMS5003;36217;60.232;24.776;2022-11-20T12:55:28;3;3;
49778;PMS5003;36217;60.232;24.776;2022-11-20T12:58:05;9;7;
49778;PMS5003;36217;60.232;24.776;2022-11-20T13:00:40;5;5;
49778;PMS5003;36217;60.232;24.776;2022-11-20T13:03:36;3;3;
49778;PMS5003;36217;60.232;24.776;2022-11-20T13:06:10;5;3;
49778;PMS5003;36217;60.232;24.776;2022-11-20T13:08:42;9;5;
49778;PMS5003;36217;60.232;24.776;2022-11-20T13:11:17;7;5;
49778;PMS5003;36217;60.232;24.776;2022-11-20T13:14:00;6;6;
49778;PMS5003;36217;60.232;24.776;2022-11-20T13:16:40;7;5;
49778;PMS5003;36217;60.232;24.776;2022-11-20T13:19:12;3;3;
49778;PMS5003;36217;60.232;24.776;2022-11-20T13:21:42;3;3;
49778;PMS5003;36217;60.232;24.776;2022-11-20T13:24:20;7;5;
49778;PMS5003;36217;60.232;24.776;2022-11-20T13:26:59;3;3;
49778;PMS5003;36217;60.232;24.776;2022-11-20T13:29:26;6;3;
49778;PMS5003;36217;60.232;24.776;2022-11-20T13:32:01;5;5;
49778;PMS5003;36217;60.232;24.776;2022-11-20T13:34:30;5;3;
49778;PMS5003;36217;60.232;24.776;2022-11-20T13:36:58;3;3;
49778;PMS5003;36217;60.232;24.776;2022-11-20T13:39:26;3;3;
49778;PMS5003;36217;60.232;24.776;2022-11-20T13:41:54;6;5;
49778;PMS5003;36217;60.232;24.776;2022-11-20T13:44:23;6;6;
49778;PMS5003;36217;60.232;24.776;2022-11-20T13:46:53;7;6;
49778;PMS5003;36217;60.232;24.776;2022-11-20T13:49:21;5;3;
49778;PMS5003;36217;60.232;24.776;2022-11-20T13:51:54;6;6;
49778;PMS5003;36217;60.232;24.776;2022-11-20T13:54:51;11;7;
49778;PMS5003;36217;60.232;24.776;2022-11-20T13:57:30;7;5;
49778;PMS5003;36217;60.232;24.776;2022-11-20T14:00:09;7;7;
49778;PMS5003;36217;60.232;24.776;2022-11-20T14:02:39;5;5;
49778;PMS5003;36217;60.232;24.776;2022-11-20T14:05:11;9;9;
49778;PMS5003;36217;60.232;24.776;2022-11-20T14:07:46;9;7;
49778;PMS5003;36217;60.232;24.776;2022-11-20T14:10:22;3;3;
49778;PMS5003;36217;60.232;24.776;2022-11-20T14:12:51;7;7;
49778;PMS5003;36217;60.232;24.776;2022-11-20T14:15:26;10;6;
49778;PMS5003;36217;60.232;24.776;2022-11-20T14:17:55;6;6;
49778;PMS5003;36217;60.232;24.776;2022-11-20T14:20:23;7;6;
49778;PMS5003;36217;60.232;24.776;2022-11-20T14:22:53;6;6;
49778;PMS5003;36217;60.232;24.776;2022-11-20T14:25:22;6;6;
49778;PMS5003;36217;60.232;24.776;2022-11-20T14:27:51;10;6;
49778;PMS5003;36217;60.232;24.776;2022-11-20T14:30:20;7;6;
49778;PMS5003;36217;60.232;24.776;2022-11-20T14:32:49;6;5;
49778;PMS5003;36217;60.232;24.776;2022-11-20T14:35:20;7;7;
49778;PMS5003;36217;60.232;24.776;2022-11-20T14:37:50;7;7;
49778;PMS5003;36217;60.232;24.776;2022-11-20T14:40:27;6;6;
49778;PMS5003;36217;60.232;24.776;2022-11-20T14:42:56;7;7;
49778;PMS5003;36217;60.232;24.776;2022-11-20T14:45:24;5;5;
49778;PMS5003;36217;60.232;24.776;2022-11-20T14:47:52;7;7;
49778;PMS5003;36217;60.232;24.776;2022-11-20T14:50:22;5;5;
49778;PMS5003;36217;60.232;24.776;2022-11-20T14:52:51;5;5;
49778;PMS5003;36217;60.232;24.776;2022-11-20T14:55:28;5;5;
49778;PMS5003;36217;60.232;24.776;2022-11-20T14:57:57;5;5;
49778;PMS5003;36217;60.232;24.776;2022-11-20T15:00:25;16;8;
49778;PMS5003;36217;60.232;24.776;2022-11-20T15:02:53;10;7;
49778;PMS5003;36217;60.232;24.776;2022-11-20T15:05:21;11;8;
49778;PMS5003;36217;60.232;24.776;2022-11-20T15:07:50;7;7;
49778;PMS5003;36217;60.232;24.776;2022-11-20T15:10:30;7;7;
49778;PMS5003;36217;60.232;24.776;2022-11-20T15:12:59;7;7;
49778;PMS5003;36217;60.232;24.776;2022-11-20T15:15:29;14;11;
49778;PMS5003;36217;60.232;24.776;2022-11-20T15:17:59;7;7;
49778;PMS5003;36217;60.232;24.776;2022-11-20T15:20:27;9;7;
49778;PMS5003;36217;60.232;24.776;2022-11-20T15:22:57;9;6;
49778;PMS5003;36217;60.232;24.776;2022-11-20T15:25:24;8;6;
49778;PMS5003;36217;60.232;24.776;2022-11-20T15:27:52;11;11;
49778;PMS5003;36217;60.232;24.776;2022-11-20T15:30:22;7;7;
49778;PMS5003;36217;60.232;24.776;2022-11-20T15:32:50;6;6;
49778;PMS5003;36217;60.232;24.776;2022-11-20T15:35:17;6;6;
49778;PMS5003;36217;60.232;24.776;2022-11-20T15:37:44;10;10;
49778;PMS5003;36217;60.232;24.776;2022-11-20T15:40:11;8;7;
49778;PMS5003;36217;60.232;24.776;2022-11-20T15:42:39;6;6;
49778;PMS5003;36217;60.232;24.776;2022-11-20T15:45:06;6;6;
49778;PMS5003;36217;60.232;24.776;2022-11-20T15:47:34;8;7;
49778;PMS5003;36217;60.232;24.776;2022-11-20T15:50:02;6;6;
49778;PMS5003;36217;60.232;24.776;2022-11-20T15:52:30;8;8;
49778;PMS5003;36217;60.232;24.776;2022-11-20T15:54:57;10;7;
49778;PMS5003;36217;60.232;24.776;2022-11-20T15:57:24;7;6;
49778;PMS5003;36217;60.232;24.776;2022-11-20T15:59:52;8;7;
49778;PMS5003;36217;60.232;24.776;2022-11-20T16:02:19;8;8;
49778;PMS5003;36217;60.232;24.776;2022-11-20T16:04:46;7;7;
49778;PMS5003;36217;60.232;24.776;2022-11-20T16:07:13;6;6;
49778;PMS5003;36217;60.232;24.776;2022-11-20T16:09:40;15;12;
49778;PMS5003;36217;60.232;24.776;2022-11-20T16:12:08;8;8;
49778;PMS5003;36217;60.232;24.776;2022-11-20T16:14:36;7;7;
49778;PMS5003;36217;60.232;24.776;2022-11-20T16:17:03;9;9;
49778;PMS5003;36217;60.232;24.776;2022-11-20T16:19:30;11;10;
49778;PMS5003;36217;60.232;24.776;2022-11-20T16:21:58;10;9;
49778;PMS5003;36217;60.232;24.776;2022-11-20T16:24:24;9;6;
49778;PMS5003;36217;60.232;24.776;2022-11-20T16:26:52;10;10;
49778;PMS5003;36217;60.232;24.776;2022-11-20T16:29:20;7;7;
49778;PMS5003;36217;60.232;24.776;2022-11-20T16:31:47;7;7;
49778;PMS5003;36217;60.232;24.776;2022-11-20T16:34:15;7;7;
49778;PMS5003;36217;60.232;24.776;2022-11-20T16:36:43;9;9;
49778;PMS5003;36217;60.232;24.776;2022-11-20T16:39:12;7;7;
49778;PMS5003;36217;60.232;24.776;2022-11-20T16:41:39;9;9;
49778;PMS5003;36217;60.232;24.776;2022-11-20T16:44:07;11;11;
49778;PMS5003;36217;60.232;24.776;2022-11-20T16:46:34;5;5;
49778;PMS5003;36217;60.232;24.776;2022-11-20T16:49:03;10;10;